Weather forecast for 2. Portugal Montalegre

Paragliding World Cup, 950 m
N41.827, E-7.788


Sounding

Red line — air temperature ˚C.
Blue line — thermal bubble temperature ˚C.
Green line — dew point temperature ˚C.
Wind speed is in meters per second.

Table forecast

GFS 0.25˚ model

temp. wind gust humid. clouds prec. press. hpbl
Mon14 00:00 14 28.0 nne 2 2 89 33 5.2 1021 17
03:00 14 48.0 ne 0 0 77 75 0.1 1019 10
06:00 15 46.0 ne 1 1 79 1 0.3 1020 15
09:00 21 97.0 e 2 2 61 0 0.0 1020 480
12:00 25 116.0 ese 2 2 43 1 0.0 1019 1467
15:00 27 124.0 se 2 3 31 43 0.0 1018 3272
18:00 24 335.0 nnw 2 3 49 0 0.0 1017 507
21:00 15 13.0 nne 2 2 77 5 0.0 1020 22
 
Tue15 00:00 15 57.0 ene 0 0 78 10 0.0 1019 11
03:00 14 44.0 ne 1 1 82 69 0.0 1019 17
06:00 15 60.0 ene 1 2 77 0 0.0 1019 28
09:00 21 92.0 e 3 5 54 0 0.0 1018 544
12:00 26 94.0 e 3 3 40 0 0.0 1015 965
15:00 29 109.0 ese 1 4 27 68 0.0 1012 3706
18:00 15 272.0 w 8 16 93 100 0.8 1013 434
21:00 14 47.0 ne 0 0 90 100 3.9 1016 11
 
Wed16 00:00 14 90.0 e 2 2 98 14 8.6 1015 47
03:00 14 6.0 n 1 1 89 81 0.1 1012 13
06:00 14 61.0 ene 1 1 90 89 0.4 1012 21
09:00 19 140.0 se 2 2 77 22 1.0 1011 526
12:00 21 231.0 sw 3 4 72 10 4.5 1011 976
15:00 20 237.0 wsw 5 6 73 94 6.3 1010 994
18:00 17 279.0 w 2 4 82 100 8.4 1010 214
21:00 14 277.0 w 2 2 93 100 0.6 1012 19
 
Thu17 00:00 12 316.0 nw 2 1 94 7 0.6 1012 13
03:00 11 324.0 nw 1 1 95 30 0.1 1011 11
06:00 12 343.0 nnw 1 1 95 61 0.1 1012 51
09:00 17 328.0 nnw 0 1 75 100 0.0 1011 799
12:00 18 257.0 wsw 1 2 70 100 0.8 1011 862
15:00 17 319.0 nw 1 2 74 100 2.4 1011 749
18:00 15 312.0 nw 1 2 81 100 4.6 1012 773
21:00 12 335.0 nnw 1 3 95 100 0.5 1014 401
 
Fri18 00:00 11 28.0 nne 2 4 98 100 0.5 1013 238
03:00 11 24.0 nne 2 3 98 56 0.0 1013 140
06:00 11 39.0 ne 2 4 96 99 1.1 1013 164
09:00 12 87.0 e 2 7 94 100 0.4 1014 689
12:00 16 103.0 ese 2 3 78 47 0.8 1013 773
15:00 16 116.0 ese 3 4 80 31 4.5 1012 748
18:00 16 219.0 sw 2 2 81 1 7.4 1011 503
21:00 11 262.0 w 2 2 97 9 2.1 1014 29
 

0.013 s